sensor_id;sensor_type;location;lat;lon;timestamp;P1;durP1;ratioP1;P2;durP2;ratioP2
42912;SDS011;50720;54.324;18.558;2023-03-01T00:00:54;10.85;;;4.30;;
42912;SDS011;50720;54.324;18.558;2023-03-01T00:03:33;6.68;;;3.85;;
42912;SDS011;50720;54.324;18.558;2023-03-01T00:06:10;8.93;;;4.25;;
42912;SDS011;50720;54.324;18.558;2023-03-01T00:08:43;8.95;;;4.10;;
42912;SDS011;50720;54.324;18.558;2023-03-01T00:11:15;7.63;;;3.80;;
42912;SDS011;50720;54.324;18.558;2023-03-01T00:13:51;8.10;;;3.78;;
42912;SDS011;50720;54.324;18.558;2023-03-01T00:16:34;14.05;;;4.32;;
42912;SDS011;50720;54.324;18.558;2023-03-01T00:19:12;11.38;;;4.30;;
42912;SDS011;50720;54.324;18.558;2023-03-01T00:21:47;8.35;;;3.88;;
42912;SDS011;50720;54.324;18.558;2023-03-01T00:24:29;10.77;;;4.07;;
42912;SDS011;50720;54.324;18.558;2023-03-01T00:27:10;9.85;;;4.25;;
42912;SDS011;50720;54.324;18.558;2023-03-01T00:29:49;11.07;;;4.65;;
42912;SDS011;50720;54.324;18.558;2023-03-01T00:32:19;11.60;;;4.88;;
42912;SDS011;50720;54.324;18.558;2023-03-01T00:34:53;7.35;;;3.80;;
42912;SDS011;50720;54.324;18.558;2023-03-01T00:37:28;9.48;;;4.60;;
42912;SDS011;50720;54.324;18.558;2023-03-01T00:42:35;9.27;;;3.60;;
42912;SDS011;50720;54.324;18.558;2023-03-01T00:45:11;11.18;;;4.50;;
42912;SDS011;50720;54.324;18.558;2023-03-01T00:47:41;12.57;;;4.93;;
42912;SDS011;50720;54.324;18.558;2023-03-01T00:50:14;9.38;;;4.35;;
42912;SDS011;50720;54.324;18.558;2023-03-01T00:52:51;7.30;;;5.22;;
42912;SDS011;50720;54.324;18.558;2023-03-01T00:55:28;7.13;;;4.38;;
42912;SDS011;50720;54.324;18.558;2023-03-01T00:58:01;18.35;;;5.28;;
42912;SDS011;50720;54.324;18.558;2023-03-01T01:00:34;9.63;;;4.00;;
42912;SDS011;50720;54.324;18.558;2023-03-01T01:03:08;12.38;;;4.55;;
42912;SDS011;50720;54.324;18.558;2023-03-01T01:05:41;15.23;;;4.57;;
42912;SDS011;50720;54.324;18.558;2023-03-01T01:08:14;10.20;;;4.82;;
42912;SDS011;50720;54.324;18.558;2023-03-01T01:10:48;13.82;;;4.68;;
42912;SDS011;50720;54.324;18.558;2023-03-01T01:13:23;11.50;;;4.95;;
42912;SDS011;50720;54.324;18.558;2023-03-01T01:15:54;10.55;;;4.63;;
42912;SDS011;50720;54.324;18.558;2023-03-01T01:18:34;12.27;;;5.20;;
42912;SDS011;50720;54.324;18.558;2023-03-01T01:21:09;10.10;;;4.65;;
42912;SDS011;50720;54.324;18.558;2023-03-01T01:23:42;17.90;;;5.70;;
42912;SDS011;50720;54.324;18.558;2023-03-01T01:26:21;13.95;;;5.22;;
42912;SDS011;50720;54.324;18.558;2023-03-01T01:28:58;8.48;;;4.40;;
42912;SDS011;50720;54.324;18.558;2023-03-01T01:31:33;11.95;;;5.82;;
42912;SDS011;50720;54.324;18.558;2023-03-01T01:34:07;14.32;;;6.03;;
42912;SDS011;50720;54.324;18.558;2023-03-01T01:36:47;14.07;;;5.45;;
42912;SDS011;50720;54.324;18.558;2023-03-01T01:39:25;11.27;;;5.60;;
42912;SDS011;50720;54.324;18.558;2023-03-01T01:42:12;16.63;;;5.65;;
42912;SDS011;50720;54.324;18.558;2023-03-01T01:44:45;11.35;;;5.18;;
42912;SDS011;50720;54.324;18.558;2023-03-01T01:47:18;11.55;;;5.10;;
42912;SDS011;50720;54.324;18.558;2023-03-01T01:49:55;11.98;;;5.40;;
42912;SDS011;50720;54.324;18.558;2023-03-01T01:52:27;16.45;;;7.15;;
42912;SDS011;50720;54.324;18.558;2023-03-01T01:55:08;10.18;;;5.00;;
42912;SDS011;50720;54.324;18.558;2023-03-01T01:57:45;12.00;;;6.32;;
42912;SDS011;50720;54.324;18.558;2023-03-01T02:00:21;13.13;;;5.07;;
42912;SDS011;50720;54.324;18.558;2023-03-01T02:02:55;12.95;;;5.60;;
42912;SDS011;50720;54.324;18.558;2023-03-01T02:05:33;15.60;;;5.72;;
42912;SDS011;50720;54.324;18.558;2023-03-01T02:08:12;13.52;;;6.10;;
42912;SDS011;50720;54.324;18.558;2023-03-01T02:10:53;15.63;;;6.25;;
42912;SDS011;50720;54.324;18.558;2023-03-01T02:13:33;13.02;;;5.75;;
42912;SDS011;50720;54.324;18.558;2023-03-01T02:16:13;12.38;;;6.13;;
42912;SDS011;50720;54.324;18.558;2023-03-01T02:18:54;18.52;;;5.85;;
42912;SDS011;50720;54.324;18.558;2023-03-01T02:21:34;15.65;;;6.82;;
42912;SDS011;50720;54.324;18.558;2023-03-01T02:24:17;14.98;;;7.03;;
42912;SDS011;50720;54.324;18.558;2023-03-01T02:26:55;16.23;;;7.45;;
42912;SDS011;50720;54.324;18.558;2023-03-01T02:29:52;14.48;;;7.82;;
42912;SDS011;50720;54.324;18.558;2023-03-01T02:32:23;18.95;;;8.65;;
42912;SDS011;50720;54.324;18.558;2023-03-01T02:34:56;20.20;;;9.10;;
42912;SDS011;50720;54.324;18.558;2023-03-01T02:37:29;18.63;;;7.85;;
42912;SDS011;50720;54.324;18.558;2023-03-01T02:40:08;22.50;;;9.23;;
42912;SDS011;50720;54.324;18.558;2023-03-01T02:42:50;18.02;;;8.32;;
42912;SDS011;50720;54.324;18.558;2023-03-01T02:45:32;19.98;;;9.63;;
42912;SDS011;50720;54.324;18.558;2023-03-01T02:48:07;26.45;;;8.52;;
42912;SDS011;50720;54.324;18.558;2023-03-01T02:50:46;24.70;;;10.55;;
42912;SDS011;50720;54.324;18.558;2023-03-01T02:53:35;26.92;;;10.13;;
42912;SDS011;50720;54.324;18.558;2023-03-01T02:56:23;21.05;;;10.63;;
42912;SDS011;50720;54.324;18.558;2023-03-01T02:59:01;25.10;;;11.35;;
42912;SDS011;50720;54.324;18.558;2023-03-01T03:01:42;27.10;;;11.40;;
42912;SDS011;50720;54.324;18.558;2023-03-01T03:04:21;24.45;;;12.38;;
42912;SDS011;50720;54.324;18.558;2023-03-01T03:06:54;26.50;;;11.85;;
42912;SDS011;50720;54.324;18.558;2023-03-01T03:09:31;25.92;;;11.57;;
42912;SDS011;50720;54.324;18.558;2023-03-01T03:12:08;27.70;;;12.35;;
42912;SDS011;50720;54.324;18.558;2023-03-01T03:14:40;32.17;;;13.20;;
42912;SDS011;50720;54.324;18.558;2023-03-01T03:17:16;37.05;;;14.98;;
42912;SDS011;50720;54.324;18.558;2023-03-01T03:19:51;32.40;;;12.85;;
42912;SDS011;50720;54.324;18.558;2023-03-01T03:22:36;39.92;;;13.85;;
42912;SDS011;50720;54.324;18.558;2023-03-01T03:25:11;33.22;;;14.30;;
42912;SDS011;50720;54.324;18.558;2023-03-01T03:27:52;35.20;;;13.95;;
42912;SDS011;50720;54.324;18.558;2023-03-01T03:30:33;37.55;;;15.25;;
42912;SDS011;50720;54.324;18.558;2023-03-01T03:33:16;31.13;;;12.35;;
42912;SDS011;50720;54.324;18.558;2023-03-01T03:35:51;36.60;;;13.60;;
42912;SDS011;50720;54.324;18.558;2023-03-01T03:38:28;32.20;;;13.65;;
42912;SDS011;50720;54.324;18.558;2023-03-01T03:41:01;31.45;;;14.38;;
42912;SDS011;50720;54.324;18.558;2023-03-01T03:43:37;33.88;;;13.65;;
42912;SDS011;50720;54.324;18.558;2023-03-01T03:46:11;38.22;;;15.13;;
42912;SDS011;50720;54.324;18.558;2023-03-01T03:48:43;28.00;;;13.35;;
42912;SDS011;50720;54.324;18.558;2023-03-01T03:51:34;35.38;;;13.77;;
42912;SDS011;50720;54.324;18.558;2023-03-01T03:54:09;27.85;;;12.95;;
42912;SDS011;50720;54.324;18.558;2023-03-01T03:56:43;32.65;;;14.35;;
42912;SDS011;50720;54.324;18.558;2023-03-01T03:59:19;36.10;;;15.90;;
42912;SDS011;50720;54.324;18.558;2023-03-01T04:01:54;37.83;;;13.90;;
42912;SDS011;50720;54.324;18.558;2023-03-01T04:04:30;37.05;;;14.30;;
42912;SDS011;50720;54.324;18.558;2023-03-01T04:07:11;41.38;;;17.40;;
42912;SDS011;50720;54.324;18.558;2023-03-01T04:09:55;39.05;;;15.95;;
42912;SDS011;50720;54.324;18.558;2023-03-01T04:12:28;35.30;;;14.25;;
42912;SDS011;50720;54.324;18.558;2023-03-01T04:15:04;35.72;;;17.20;;
42912;SDS011;50720;54.324;18.558;2023-03-01T04:17:49;35.10;;;15.05;;
42912;SDS011;50720;54.324;18.558;2023-03-01T04:20:29;31.08;;;13.40;;
42912;SDS011;50720;54.324;18.558;2023-03-01T04:23:08;35.25;;;13.32;;
42912;SDS011;50720;54.324;18.558;2023-03-01T04:25:50;39.88;;;14.90;;
42912;SDS011;50720;54.324;18.558;2023-03-01T04:28:29;32.67;;;14.10;;
42912;SDS011;50720;54.324;18.558;2023-03-01T04:31:06;40.67;;;14.45;;
42912;SDS011;50720;54.324;18.558;2023-03-01T04:33:48;35.25;;;15.52;;
42912;SDS011;50720;54.324;18.558;2023-03-01T04:36:27;35.78;;;15.48;;
42912;SDS011;50720;54.324;18.558;2023-03-01T04:39:02;39.58;;;16.05;;
42912;SDS011;50720;54.324;18.558;2023-03-01T04:41:58;35.78;;;16.52;;
42912;SDS011;50720;54.324;18.558;2023-03-01T04:44:33;38.72;;;15.50;;
42912;SDS011;50720;54.324;18.558;2023-03-01T04:47:04;38.10;;;14.65;;
42912;SDS011;50720;54.324;18.558;2023-03-01T04:49:42;37.47;;;15.60;;
42912;SDS011;50720;54.324;18.558;2023-03-01T04:52:19;37.00;;;16.15;;
42912;SDS011;50720;54.324;18.558;2023-03-01T04:54:53;37.63;;;15.40;;
42912;SDS011;50720;54.324;18.558;2023-03-01T04:57:28;34.85;;;13.73;;
42912;SDS011;50720;54.324;18.558;2023-03-01T05:00:03;35.13;;;13.90;;
42912;SDS011;50720;54.324;18.558;2023-03-01T05:02:56;31.25;;;13.80;;
42912;SDS011;50720;54.324;18.558;2023-03-01T05:05:30;35.83;;;15.52;;
42912;SDS011;50720;54.324;18.558;2023-03-01T05:08:09;39.75;;;14.65;;
42912;SDS011;50720;54.324;18.558;2023-03-01T05:10:45;40.40;;;14.10;;
42912;SDS011;50720;54.324;18.558;2023-03-01T05:13:25;34.28;;;13.35;;
42912;SDS011;50720;54.324;18.558;2023-03-01T05:15:56;34.78;;;15.00;;
42912;SDS011;50720;54.324;18.558;2023-03-01T05:18:28;37.85;;;16.88;;
42912;SDS011;50720;54.324;18.558;2023-03-01T05:21:01;43.30;;;16.05;;
42912;SDS011;50720;54.324;18.558;2023-03-01T05:23:34;32.33;;;14.23;;
42912;SDS011;50720;54.324;18.558;2023-03-01T05:26:05;44.53;;;16.08;;
42912;SDS011;50720;54.324;18.558;2023-03-01T05:28:53;41.72;;;16.17;;
42912;SDS011;50720;54.324;18.558;2023-03-01T05:31:26;32.55;;;15.02;;
42912;SDS011;50720;54.324;18.558;2023-03-01T05:33:58;38.05;;;16.25;;
42912;SDS011;50720;54.324;18.558;2023-03-01T05:36:28;36.22;;;15.27;;
42912;SDS011;50720;54.324;18.558;2023-03-01T05:39:00;43.97;;;16.77;;
42912;SDS011;50720;54.324;18.558;2023-03-01T05:41:31;33.00;;;13.50;;
42912;SDS011;50720;54.324;18.558;2023-03-01T05:44:01;36.00;;;14.70;;
42912;SDS011;50720;54.324;18.558;2023-03-01T05:46:31;37.17;;;16.15;;
42912;SDS011;50720;54.324;18.558;2023-03-01T05:49:01;38.55;;;15.50;;
42912;SDS011;50720;54.324;18.558;2023-03-01T05:51:31;40.78;;;15.95;;
42912;SDS011;50720;54.324;18.558;2023-03-01T05:54:02;47.45;;;18.33;;
42912;SDS011;50720;54.324;18.558;2023-03-01T05:56:33;38.08;;;16.40;;
42912;SDS011;50720;54.324;18.558;2023-03-01T05:59:03;37.13;;;16.67;;
42912;SDS011;50720;54.324;18.558;2023-03-01T06:01:33;43.80;;;16.42;;
42912;SDS011;50720;54.324;18.558;2023-03-01T06:04:05;34.88;;;16.88;;
42912;SDS011;50720;54.324;18.558;2023-03-01T06:06:35;37.90;;;14.50;;
42912;SDS011;50720;54.324;18.558;2023-03-01T06:09:08;36.60;;;15.13;;
42912;SDS011;50720;54.324;18.558;2023-03-01T06:11:38;37.15;;;15.68;;
42912;SDS011;50720;54.324;18.558;2023-03-01T06:14:07;34.03;;;14.00;;
42912;SDS011;50720;54.324;18.558;2023-03-01T06:16:37;34.38;;;15.20;;
42912;SDS011;50720;54.324;18.558;2023-03-01T06:19:07;34.75;;;14.93;;
42912;SDS011;50720;54.324;18.558;2023-03-01T06:21:36;33.78;;;15.23;;
42912;SDS011;50720;54.324;18.558;2023-03-01T06:24:08;34.53;;;14.80;;
42912;SDS011;50720;54.324;18.558;2023-03-01T06:26:38;32.95;;;14.05;;
42912;SDS011;50720;54.324;18.558;2023-03-01T06:29:08;38.80;;;14.95;;
42912;SDS011;50720;54.324;18.558;2023-03-01T06:31:37;29.92;;;14.80;;
42912;SDS011;50720;54.324;18.558;2023-03-01T06:34:07;40.60;;;14.35;;
42912;SDS011;50720;54.324;18.558;2023-03-01T06:36:40;41.45;;;14.38;;
42912;SDS011;50720;54.324;18.558;2023-03-01T06:39:11;31.98;;;12.35;;
42912;SDS011;50720;54.324;18.558;2023-03-01T06:41:41;38.55;;;13.45;;
42912;SDS011;50720;54.324;18.558;2023-03-01T06:44:11;35.63;;;12.43;;
42912;SDS011;50720;54.324;18.558;2023-03-01T06:46:40;33.25;;;12.55;;
42912;SDS011;50720;54.324;18.558;2023-03-01T06:49:11;36.40;;;14.00;;
42912;SDS011;50720;54.324;18.558;2023-03-01T06:51:40;30.88;;;12.75;;
42912;SDS011;50720;54.324;18.558;2023-03-01T06:54:10;26.10;;;11.07;;
42912;SDS011;50720;54.324;18.558;2023-03-01T06:56:41;30.27;;;13.43;;
42912;SDS011;50720;54.324;18.558;2023-03-01T06:59:11;34.85;;;14.05;;
42912;SDS011;50720;54.324;18.558;2023-03-01T07:01:40;24.88;;;11.98;;
42912;SDS011;50720;54.324;18.558;2023-03-01T07:04:11;30.77;;;12.15;;
42912;SDS011;50720;54.324;18.558;2023-03-01T07:06:41;28.42;;;11.43;;
42912;SDS011;50720;54.324;18.558;2023-03-01T07:09:12;23.58;;;10.35;;
42912;SDS011;50720;54.324;18.558;2023-03-01T07:11:46;27.05;;;11.30;;
42912;SDS011;50720;54.324;18.558;2023-03-01T07:14:16;27.77;;;11.85;;
42912;SDS011;50720;54.324;18.558;2023-03-01T07:16:47;26.07;;;11.13;;
42912;SDS011;50720;54.324;18.558;2023-03-01T07:19:19;26.75;;;11.23;;
42912;SDS011;50720;54.324;18.558;2023-03-01T07:21:49;24.20;;;11.37;;
42912;SDS011;50720;54.324;18.558;2023-03-01T07:24:21;25.70;;;10.88;;
42912;SDS011;50720;54.324;18.558;2023-03-01T07:26:51;24.38;;;10.63;;
42912;SDS011;50720;54.324;18.558;2023-03-01T07:29:22;31.45;;;13.27;;
42912;SDS011;50720;54.324;18.558;2023-03-01T07:31:52;30.45;;;12.38;;
42912;SDS011;50720;54.324;18.558;2023-03-01T07:34:22;31.33;;;13.18;;
42912;SDS011;50720;54.324;18.558;2023-03-01T07:36:51;26.30;;;12.27;;
42912;SDS011;50720;54.324;18.558;2023-03-01T07:39:23;26.05;;;12.27;;
42912;SDS011;50720;54.324;18.558;2023-03-01T07:41:53;29.33;;;11.35;;
42912;SDS011;50720;54.324;18.558;2023-03-01T07:44:23;24.52;;;12.88;;
42912;SDS011;50720;54.324;18.558;2023-03-01T07:46:52;23.38;;;10.15;;
42912;SDS011;50720;54.324;18.558;2023-03-01T07:49:23;20.20;;;11.40;;
42912;SDS011;50720;54.324;18.558;2023-03-01T07:51:54;33.28;;;11.32;;
42912;SDS011;50720;54.324;18.558;2023-03-01T07:54:25;23.95;;;10.27;;
42912;SDS011;50720;54.324;18.558;2023-03-01T07:56:56;28.80;;;11.20;;
42912;SDS011;50720;54.324;18.558;2023-03-01T08:01:56;22.58;;;10.48;;
42912;SDS011;50720;54.324;18.558;2023-03-01T08:04:26;19.25;;;9.73;;
42912;SDS011;50720;54.324;18.558;2023-03-01T08:06:55;27.33;;;10.77;;
42912;SDS011;50720;54.324;18.558;2023-03-01T08:09:27;22.40;;;10.43;;
42912;SDS011;50720;54.324;18.558;2023-03-01T08:11:56;30.00;;;10.90;;
42912;SDS011;50720;54.324;18.558;2023-03-01T08:14:27;19.27;;;9.75;;
42912;SDS011;50720;54.324;18.558;2023-03-01T08:16:57;22.88;;;11.02;;
42912;SDS011;50720;54.324;18.558;2023-03-01T08:19:27;21.65;;;10.15;;
42912;SDS011;50720;54.324;18.558;2023-03-01T08:21:57;22.27;;;10.50;;
42912;SDS011;50720;54.324;18.558;2023-03-01T08:24:28;20.80;;;9.20;;
42912;SDS011;50720;54.324;18.558;2023-03-01T08:26:58;23.25;;;9.60;;
42912;SDS011;50720;54.324;18.558;2023-03-01T08:29:30;22.05;;;10.20;;
42912;SDS011;50720;54.324;18.558;2023-03-01T08:31:59;33.80;;;12.10;;
42912;SDS011;50720;54.324;18.558;2023-03-01T08:34:29;23.73;;;9.77;;
42912;SDS011;50720;54.324;18.558;2023-03-01T08:36:59;28.67;;;10.93;;
42912;SDS011;50720;54.324;18.558;2023-03-01T08:39:31;17.27;;;9.57;;
42912;SDS011;50720;54.324;18.558;2023-03-01T08:44:29;21.15;;;9.25;;
42912;SDS011;50720;54.324;18.558;2023-03-01T08:46:59;25.15;;;10.25;;
42912;SDS011;50720;54.324;18.558;2023-03-01T08:49:29;19.88;;;10.27;;
42912;SDS011;50720;54.324;18.558;2023-03-01T08:51:59;22.65;;;9.13;;
42912;SDS011;50720;54.324;18.558;2023-03-01T08:54:32;17.92;;;8.43;;
42912;SDS011;50720;54.324;18.558;2023-03-01T08:57:01;20.83;;;9.15;;
42912;SDS011;50720;54.324;18.558;2023-03-01T08:59:31;16.07;;;8.17;;
42912;SDS011;50720;54.324;18.558;2023-03-01T09:02:04;16.67;;;8.13;;
42912;SDS011;50720;54.324;18.558;2023-03-01T09:04:34;15.02;;;7.95;;
42912;SDS011;50720;54.324;18.558;2023-03-01T09:07:03;18.15;;;8.75;;
42912;SDS011;50720;54.324;18.558;2023-03-01T09:09:35;14.20;;;7.57;;
42912;SDS011;50720;54.324;18.558;2023-03-01T09:12:05;17.17;;;7.57;;
42912;SDS011;50720;54.324;18.558;2023-03-01T09:14:34;14.82;;;8.60;;
42912;SDS011;50720;54.324;18.558;2023-03-01T09:17:05;15.18;;;8.93;;
42912;SDS011;50720;54.324;18.558;2023-03-01T09:19:35;15.50;;;8.70;;
42912;SDS011;50720;54.324;18.558;2023-03-01T09:22:05;22.15;;;8.93;;
42912;SDS011;50720;54.324;18.558;2023-03-01T09:24:36;21.17;;;9.27;;
42912;SDS011;50720;54.324;18.558;2023-03-01T09:27:06;15.75;;;8.65;;
42912;SDS011;50720;54.324;18.558;2023-03-01T09:29:36;20.85;;;9.07;;
42912;SDS011;50720;54.324;18.558;2023-03-01T09:32:07;15.18;;;9.00;;
42912;SDS011;50720;54.324;18.558;2023-03-01T09:34:37;15.73;;;8.30;;
42912;SDS011;50720;54.324;18.558;2023-03-01T09:37:20;19.25;;;7.65;;
42912;SDS011;50720;54.324;18.558;2023-03-01T09:39:52;18.02;;;7.88;;
42912;SDS011;50720;54.324;18.558;2023-03-01T09:42:21;17.17;;;7.90;;
42912;SDS011;50720;54.324;18.558;2023-03-01T09:44:52;19.17;;;8.60;;
42912;SDS011;50720;54.324;18.558;2023-03-01T09:47:26;21.00;;;9.27;;
42912;SDS011;50720;54.324;18.558;2023-03-01T09:50:01;17.13;;;8.60;;
42912;SDS011;50720;54.324;18.558;2023-03-01T09:52:36;23.13;;;9.10;;
42912;SDS011;50720;54.324;18.558;2023-03-01T09:55:13;15.10;;;8.60;;
42912;SDS011;50720;54.324;18.558;2023-03-01T09:57:45;15.65;;;7.95;;
42912;SDS011;50720;54.324;18.558;2023-03-01T10:00:22;17.40;;;8.57;;
42912;SDS011;50720;54.324;18.558;2023-03-01T10:03:03;15.15;;;8.32;;
42912;SDS011;50720;54.324;18.558;2023-03-01T10:05:47;14.18;;;7.22;;
42912;SDS011;50720;54.324;18.558;2023-03-01T10:08:26;15.07;;;8.80;;
42912;SDS011;50720;54.324;18.558;2023-03-01T10:11:02;16.98;;;8.68;;
42912;SDS011;50720;54.324;18.558;2023-03-01T10:13:36;20.00;;;10.25;;
42912;SDS011;50720;54.324;18.558;2023-03-01T10:16:17;16.95;;;9.90;;
42912;SDS011;50720;54.324;18.558;2023-03-01T10:18:52;18.27;;;9.88;;
42912;SDS011;50720;54.324;18.558;2023-03-01T10:21:25;19.27;;;9.07;;
42912;SDS011;50720;54.324;18.558;2023-03-01T10:23:58;18.85;;;9.90;;
42912;SDS011;50720;54.324;18.558;2023-03-01T10:26:40;19.35;;;9.93;;
42912;SDS011;50720;54.324;18.558;2023-03-01T10:29:15;17.08;;;8.98;;
42912;SDS011;50720;54.324;18.558;2023-03-01T10:31:47;17.48;;;9.95;;
42912;SDS011;50720;54.324;18.558;2023-03-01T10:34:19;18.05;;;8.90;;
42912;SDS011;50720;54.324;18.558;2023-03-01T10:36:50;19.40;;;8.95;;
42912;SDS011;50720;54.324;18.558;2023-03-01T10:39:24;19.23;;;10.82;;
42912;SDS011;50720;54.324;18.558;2023-03-01T10:41:58;21.42;;;10.18;;
42912;SDS011;50720;54.324;18.558;2023-03-01T10:44:36;21.73;;;10.75;;
42912;SDS011;50720;54.324;18.558;2023-03-01T10:47:12;16.83;;;9.20;;
42912;SDS011;50720;54.324;18.558;2023-03-01T10:49:51;17.30;;;9.63;;
42912;SDS011;50720;54.324;18.558;2023-03-01T10:52:23;19.42;;;10.07;;
42912;SDS011;50720;54.324;18.558;2023-03-01T10:54:55;22.65;;;10.38;;
42912;SDS011;50720;54.324;18.558;2023-03-01T11:00:16;22.80;;;11.07;;
42912;SDS011;50720;54.324;18.558;2023-03-01T11:03:10;18.67;;;9.85;;
42912;SDS011;50720;54.324;18.558;2023-03-01T11:05:54;18.42;;;9.77;;
42912;SDS011;50720;54.324;18.558;2023-03-01T11:08:29;15.95;;;9.27;;
42912;SDS011;50720;54.324;18.558;2023-03-01T11:11:05;14.68;;;8.45;;
42912;SDS011;50720;54.324;18.558;2023-03-01T11:13:53;18.77;;;9.93;;
42912;SDS011;50720;54.324;18.558;2023-03-01T11:16:25;17.38;;;10.00;;
42912;SDS011;50720;54.324;18.558;2023-03-01T11:18:58;15.00;;;8.25;;
42912;SDS011;50720;54.324;18.558;2023-03-01T11:21:29;15.43;;;8.38;;
42912;SDS011;50720;54.324;18.558;2023-03-01T11:24:03;16.23;;;8.93;;
42912;SDS011;50720;54.324;18.558;2023-03-01T11:26:36;13.32;;;8.50;;
42912;SDS011;50720;54.324;18.558;2023-03-01T11:29:14;16.83;;;9.38;;
42912;SDS011;50720;54.324;18.558;2023-03-01T11:31:49;14.05;;;9.13;;
42912;SDS011;50720;54.324;18.558;2023-03-01T11:34:28;15.38;;;10.18;;
42912;SDS011;50720;54.324;18.558;2023-03-01T11:37:09;19.70;;;10.32;;
42912;SDS011;50720;54.324;18.558;2023-03-01T11:39:47;17.65;;;10.40;;
42912;SDS011;50720;54.324;18.558;2023-03-01T11:42:28;18.00;;;10.30;;
42912;SDS011;50720;54.324;18.558;2023-03-01T11:45:08;16.65;;;9.75;;
42912;SDS011;50720;54.324;18.558;2023-03-01T11:47:49;14.50;;;9.65;;
42912;SDS011;50720;54.324;18.558;2023-03-01T11:50:34;20.17;;;10.95;;
42912;SDS011;50720;54.324;18.558;2023-03-01T11:53:16;18.05;;;10.73;;
42912;SDS011;50720;54.324;18.558;2023-03-01T11:56:02;18.95;;;10.20;;
42912;SDS011;50720;54.324;18.558;2023-03-01T11:58:44;22.33;;;12.32;;
42912;SDS011;50720;54.324;18.558;2023-03-01T12:01:37;18.98;;;11.05;;
42912;SDS011;50720;54.324;18.558;2023-03-01T12:04:32;18.10;;;11.43;;
42912;SDS011;50720;54.324;18.558;2023-03-01T12:07:20;20.00;;;10.82;;
42912;SDS011;50720;54.324;18.558;2023-03-01T12:10:02;17.80;;;10.05;;
42912;SDS011;50720;54.324;18.558;2023-03-01T12:12:49;21.02;;;10.73;;
42912;SDS011;50720;54.324;18.558;2023-03-01T12:21:31;18.08;;;10.50;;
42912;SDS011;50720;54.324;18.558;2023-03-01T12:24:30;18.08;;;9.80;;
42912;SDS011;50720;54.324;18.558;2023-03-01T12:27:21;15.35;;;9.52;;
42912;SDS011;50720;54.324;18.558;2023-03-01T12:30:13;16.13;;;9.65;;
42912;SDS011;50720;54.324;18.558;2023-03-01T12:32:52;19.02;;;9.95;;
42912;SDS011;50720;54.324;18.558;2023-03-01T12:38:40;18.25;;;10.60;;
42912;SDS011;50720;54.324;18.558;2023-03-01T12:41:32;17.98;;;9.95;;
42912;SDS011;50720;54.324;18.558;2023-03-01T12:47:14;20.05;;;11.80;;
42912;SDS011;50720;54.324;18.558;2023-03-01T12:49:55;17.63;;;10.00;;
42912;SDS011;50720;54.324;18.558;2023-03-01T12:52:28;18.50;;;10.95;;
42912;SDS011;50720;54.324;18.558;2023-03-01T12:55:08;23.67;;;13.57;;
42912;SDS011;50720;54.324;18.558;2023-03-01T12:57:52;22.33;;;12.43;;
42912;SDS011;50720;54.324;18.558;2023-03-01T13:00:39;22.48;;;12.07;;
42912;SDS011;50720;54.324;18.558;2023-03-01T13:10:26;17.83;;;10.88;;
42912;SDS011;50720;54.324;18.558;2023-03-01T13:13:07;20.05;;;12.02;;
42912;SDS011;50720;54.324;18.558;2023-03-01T13:15:43;18.65;;;11.05;;
42912;SDS011;50720;54.324;18.558;2023-03-01T13:18:28;15.80;;;10.40;;
42912;SDS011;50720;54.324;18.558;2023-03-01T13:24:25;17.17;;;10.50;;
42912;SDS011;50720;54.324;18.558;2023-03-01T13:27:11;15.05;;;9.02;;
42912;SDS011;50720;54.324;18.558;2023-03-01T13:29:56;18.60;;;11.02;;
42912;SDS011;50720;54.324;18.558;2023-03-01T13:32:33;16.83;;;11.82;;
42912;SDS011;50720;54.324;18.558;2023-03-01T13:41:13;17.80;;;11.77;;
42912;SDS011;50720;54.324;18.558;2023-03-01T13:43:45;18.40;;;10.65;;
42912;SDS011;50720;54.324;18.558;2023-03-01T13:46:16;15.73;;;10.32;;
42912;SDS011;50720;54.324;18.558;2023-03-01T13:48:50;16.65;;;10.35;;
42912;SDS011;50720;54.324;18.558;2023-03-01T13:51:22;18.77;;;11.23;;
42912;SDS011;50720;54.324;18.558;2023-03-01T13:53:54;19.80;;;10.63;;
42912;SDS011;50720;54.324;18.558;2023-03-01T13:56:27;15.88;;;11.68;;
42912;SDS011;50720;54.324;18.558;2023-03-01T13:59:04;18.10;;;10.38;;
42912;SDS011;50720;54.324;18.558;2023-03-01T14:01:41;16.95;;;9.93;;
42912;SDS011;50720;54.324;18.558;2023-03-01T14:04:18;22.38;;;11.05;;
42912;SDS011;50720;54.324;18.558;2023-03-01T14:06:50;17.77;;;10.52;;
42912;SDS011;50720;54.324;18.558;2023-03-01T14:09:20;16.33;;;10.20;;
42912;SDS011;50720;54.324;18.558;2023-03-01T14:12:11;16.05;;;10.15;;
42912;SDS011;50720;54.324;18.558;2023-03-01T14:14:53;17.63;;;10.48;;
42912;SDS011;50720;54.324;18.558;2023-03-01T14:17:34;18.00;;;11.15;;
42912;SDS011;50720;54.324;18.558;2023-03-01T14:20:17;21.13;;;11.02;;
42912;SDS011;50720;54.324;18.558;2023-03-01T14:22:49;17.75;;;9.75;;
42912;SDS011;50720;54.324;18.558;2023-03-01T14:25:22;19.90;;;9.63;;
42912;SDS011;50720;54.324;18.558;2023-03-01T14:27:55;19.27;;;10.30;;
42912;SDS011;50720;54.324;18.558;2023-03-01T14:30:34;17.45;;;10.07;;
42912;SDS011;50720;54.324;18.558;2023-03-01T14:33:17;20.08;;;9.75;;
42912;SDS011;50720;54.324;18.558;2023-03-01T14:35:53;16.38;;;9.88;;
42912;SDS011;50720;54.324;18.558;2023-03-01T14:38:29;15.25;;;10.13;;
42912;SDS011;50720;54.324;18.558;2023-03-01T14:41:03;14.23;;;9.00;;
42912;SDS011;50720;54.324;18.558;2023-03-01T14:43:35;17.02;;;9.27;;
42912;SDS011;50720;54.324;18.558;2023-03-01T14:46:15;17.55;;;9.25;;
42912;SDS011;50720;54.324;18.558;2023-03-01T14:48:48;16.08;;;8.48;;
42912;SDS011;50720;54.324;18.558;2023-03-01T14:51:19;19.25;;;10.32;;
42912;SDS011;50720;54.324;18.558;2023-03-01T14:53:49;17.38;;;10.05;;
42912;SDS011;50720;54.324;18.558;2023-03-01T14:56:20;15.05;;;9.35;;
42912;SDS011;50720;54.324;18.558;2023-03-01T14:58:51;21.83;;;9.00;;
42912;SDS011;50720;54.324;18.558;2023-03-01T15:01:23;18.00;;;9.00;;
42912;SDS011;50720;54.324;18.558;2023-03-01T15:03:52;17.70;;;9.43;;
42912;SDS011;50720;54.324;18.558;2023-03-01T15:06:23;16.67;;;9.68;;
42912;SDS011;50720;54.324;18.558;2023-03-01T15:08:53;18.10;;;10.80;;
42912;SDS011;50720;54.324;18.558;2023-03-01T15:11:25;17.88;;;9.50;;
42912;SDS011;50720;54.324;18.558;2023-03-01T15:13:57;14.82;;;8.48;;
42912;SDS011;50720;54.324;18.558;2023-03-01T15:16:29;18.30;;;10.38;;
42912;SDS011;50720;54.324;18.558;2023-03-01T15:19:01;18.75;;;9.82;;
42912;SDS011;50720;54.324;18.558;2023-03-01T15:21:33;18.27;;;9.63;;
42912;SDS011;50720;54.324;18.558;2023-03-01T15:24:05;18.52;;;8.98;;
42912;SDS011;50720;54.324;18.558;2023-03-01T15:26:50;16.67;;;9.45;;
42912;SDS011;50720;54.324;18.558;2023-03-01T15:29:26;15.98;;;9.25;;
42912;SDS011;50720;54.324;18.558;2023-03-01T15:32:00;15.90;;;9.63;;
42912;SDS011;50720;54.324;18.558;2023-03-01T15:34:31;18.02;;;9.80;;
42912;SDS011;50720;54.324;18.558;2023-03-01T15:37:02;22.30;;;11.23;;
42912;SDS011;50720;54.324;18.558;2023-03-01T15:39:37;18.50;;;10.20;;
42912;SDS011;50720;54.324;18.558;2023-03-01T15:42:12;23.02;;;11.15;;